Time;durP1;ratioP1;P1;durP2;ratioP2;P2;SDS_P1;SDS_P2;PMS_P1;PMS_P2;Temp;Humidity;BMP_temperature;BMP_pressure;BME280_temperature;BME280_humidity;BME280_pressure;Samples;Min_cycle;Max_cycle;Signal;HPM_P1;HPM_P2
2022/12/11 15:49:32;;;;;;;27.90;6.25;;;17.80;50.50;;;;;;5112865;27;20378;-76
2022/12/11 15:51:58;;;;;;;17.27;6.60;;;18.00;51.50;;;;;;5089261;28;20101;-76
2022/12/11 15:54:24;;;;;;;11.38;5.88;;;18.00;51.50;;;;;;5103431;22;20049;-81
2022/12/11 15:56:49;;;;;;;14.43;6.20;;;18.00;51.60;;;;;;5094964;28;20032;-81
2022/12/11 15:59:16;;;;;;;12.93;6.30;;;18.00;51.50;;;;;;5085792;28;20510;-80
2022/12/11 16:01:42;;;;;;;15.15;6.43;;;18.00;50.90;;;;;;5089222;28;20327;-77
2022/12/11 16:04:09;;;;;;;20.98;6.40;;;18.10;51.10;;;;;;5098870;28;20043;-78
2022/12/11 16:06:35;;;;;;;27.90;8.00;;;18.10;51.20;;;;;;5085209;28;20024;-84
2022/12/11 16:09:02;;;;;;;18.73;10.38;;;18.10;50.90;;;;;;5090782;28;20126;-80
2022/12/11 16:11:28;;;;;;;22.83;13.57;;;18.10;50.50;;;;;;5089680;28;20051;-78
2022/12/11 16:13:54;;;;;;;21.20;10.25;;;18.00;49.80;;;;;;5051627;28;20059;-78
2022/12/11 16:16:20;;;;;;;17.67;9.20;;;18.00;50.30;;;;;;5088925;28;20055;-82
2022/12/11 16:18:46;;;;;;;17.92;8.60;;;18.00;50.50;;;;;;5091490;28;20027;-79
2022/12/11 16:21:11;;;;;;;16.20;8.55;;;18.10;50.70;;;;;;5097020;28;20035;-79
2022/12/11 16:23:37;;;;;;;18.27;8.88;;;18.10;50.60;;;;;;5090048;28;20016;-78
2022/12/11 16:26:08;;;;;;;23.80;7.95;;;18.10;51.00;;;;;;5086914;28;20039;-76
2022/12/11 16:28:34;;;;;;;18.15;8.63;;;18.10;51.00;;;;;;5084933;28;20039;-75
2022/12/11 16:31:00;;;;;;;15.23;7.47;;;18.10;51.20;;;;;;5073635;28;20040;-74
2022/12/11 16:33:26;;;;;;;26.17;8.95;;;18.20;51.70;;;;;;5093943;28;20110;-79
2022/12/11 16:35:52;;;;;;;16.52;8.18;;;18.30;51.50;;;;;;5094634;28;20480;-78
2022/12/11 16:38:17;;;;;;;14.95;9.10;;;18.20;50.80;;;;;;5091369;28;20059;-77
2022/12/11 16:40:44;;;;;;;19.83;9.65;;;18.20;51.60;;;;;;5092112;28;20477;-76
2022/12/11 16:43:10;;;;;;;18.58;9.55;;;18.20;51.10;;;;;;5085870;28;20062;-77
2022/12/11 16:45:35;;;;;;;20.08;9.65;;;18.20;51.60;;;;;;5093009;28;20062;-82
2022/12/11 16:48:03;;;;;;;18.80;9.45;;;18.20;54.10;;;;;;5088173;28;20154;-86
2022/12/11 16:50:31;;;;;;;34.17;8.95;;;18.20;52.30;;;;;;5055482;28;20040;-79
2022/12/11 16:52:57;;;;;;;19.75;8.63;;;18.20;51.80;;;;;;5072619;28;20107;-80
2022/12/11 16:55:22;;;;;;;16.55;8.93;;;18.20;51.90;;;;;;5089958;28;20123;-84
2022/12/11 16:57:48;;;;;;;21.65;8.65;;;18.20;52.90;;;;;;5079945;28;20025;-78
2022/12/11 17:00:15;;;;;;;14.90;8.75;;;18.20;51.90;;;;;;5074979;28;20039;-79
2022/12/11 17:02:40;;;;;;;17.98;8.73;;;18.30;52.20;;;;;;5085595;28;20024;-80
2022/12/11 17:05:06;;;;;;;21.45;8.30;;;18.30;52.80;;;;;;5077239;28;20047;-81
2022/12/11 17:07:33;;;;;;;14.82;7.32;;;18.30;52.60;;;;;;5081183;28;20027;-80
2022/12/11 17:10:01;;;;;;;17.35;7.78;;;18.30;52.00;;;;;;5073176;28;20033;-78
2022/12/11 17:12:26;;;;;;;18.30;7.63;;;18.30;52.90;;;;;;5071148;28;20043;-82
2022/12/11 17:14:53;;;;;;;17.73;8.07;;;18.40;52.70;;;;;;5086142;28;20024;-82
2022/12/11 17:17:19;;;;;;;14.50;7.90;;;18.30;53.50;;;;;;5061093;28;20408;-80
2022/12/11 17:19:45;;;;;;;17.55;8.20;;;18.40;54.30;;;;;;5061599;28;20078;-82
2022/12/11 17:22:11;;;;;;;14.20;8.30;;;18.30;55.60;;;;;;5078023;28;20020;-77
2022/12/11 17:24:37;;;;;;;15.07;9.45;;;18.30;54.40;;;;;;5076524;28;20067;-76
2022/12/11 17:27:03;;;;;;;19.30;11.27;;;18.30;52.30;;;;;;5078071;28;20025;-78
2022/12/11 17:29:28;;;;;;;16.55;9.57;;;18.20;52.00;;;;;;5081687;28;20430;-78
2022/12/11 17:31:54;;;;;;;23.35;9.65;;;18.20;53.10;;;;;;5078451;28;20055;-77
